Have a Safe July 4th! 

Flight Track Log - Related Links

Times and Time Zones

All times are in EDT time to prevent confusion due to time zone crossing. See the N1089D flight status page for this flight to view local times or setup timezone preferences in your user account.

Time Position Orientation Groundspeed Altitude Reporting Facility
EDT Latitude Longitude Course Direction KTS MPH feet Rate Location/Type
Fri 12:04:22 AM 41.7189 -71.4583 252° West 100 115 6,000  Level Boston Center
Fri 12:05:22 AM 41.7144 -71.4361 105° East 65 75 500 -2,361 Descending Boston Center
Fri 12:06:24 AM 41.7019 -71.4475 214° Southwest 45 52 1,200 683 Climbing Boston Center
Fri 12:07:25 AM 41.6856 -71.4589 207° Southwest 62 71 1,900 706 Climbing Boston Center
Fri 12:08:23 AM 41.6647 -71.4675 197° South 67 77 2,600 555 Climbing Boston Center
Fri 12:09:00 AM 41.6544 -71.6323 252° West  Level FlightAware Approximate
Fri 12:09:24 AM 41.6608 -71.4953 259° West 67 77 3,000  Level Boston Center
Fri 12:10:22 AM 41.6611 -71.5258 271° West 79 91 3,000 1,525 Level Boston Center
Fri 12:11:22 AM 41.6614 -71.5564 271° West 84 97 6,000 400 Climbing Boston Center
Fri 12:12:22 AM 41.6572 -71.5817 258° West 84 97 3,800  Descending Boston Center
Fri 12:13:22 AM 41.6575 -71.6067 271° West 84 97 6,000 541 Climbing Boston Center
Fri 12:14:24 AM 41.6556 -71.6317 264° West 84 97 4,900 -300 Descending Boston Center
Fri 12:15:22 AM 41.6536 -71.6594 265° West 79 91 5,400 559 Climbing Boston Center
Fri 12:16:22 AM 41.6392 -71.6817 229° Southwest 79 91 6,000 300 Climbing Boston Center
Fri 12:17:22 AM 41.6247 -71.7069 233° Southwest 85 98 6,000 49 Level Boston Center
Fri 12:18:25 AM 41.6061 -71.7350 228° Southwest 90 104 6,100  Climbing Boston Center
Fri 12:19:25 AM 41.5897 -71.7656 234° Southwest 102 117 6,000 -50 Descending Boston Center
Fri 12:20:25 AM 41.5711 -71.7936 228° Southwest 102 117 6,000  Level Boston Center
Fri 12:21:24 AM 41.5547 -71.8214 232° Southwest 107 123 6,000  Level Boston Center
Fri 12:22:24 AM 41.5361 -71.8522 231° Southwest 107 123 6,000  Level Boston Center
Fri 12:23:23 AM 41.5175 -71.8800 228° Southwest 107 123 6,000  Level Boston Center
Fri 12:24:24 AM 41.4989 -71.9081 228° Southwest 107 123 6,000 -50 Level Boston Center
Fri 12:25:24 AM 41.4822 -71.9386 234° Southwest 107 123 5,900 -51 Descending Boston Center
Fri 12:26:22 AM 41.4636 -71.9664 228° Southwest 107 123 5,900 51 Level Boston Center
Fri 12:27:22 AM 41.4431 -71.9942 225° Southwest 107 123 6,000  Climbing Boston Center
Fri 12:28:23 AM 41.4264 -72.0247 234° Southwest 112 129 5,900  Descending Boston Center
Fri 12:29:25 AM 41.4097 -72.0525 231° Southwest 105 121 6,000  Climbing Boston Center
Fri 12:30:22 AM 41.3911 -72.0831 231° Southwest 110 127 5,900  Descending Boston Center
Fri 12:32:42 AM 41.3500 -72.1500 231° Southwest 107 123 6,000 58 Climbing New York TRACON
Fri 12:33:48 AM 41.3167 -72.1833 217° Southwest 107 123 6,100 48 Climbing New York TRACON
Fri 12:34:48 AM 41.3000 -72.2167 236° Southwest 102 117 6,100  Level New York TRACON
Fri 12:35:48 AM 41.2833 -72.2333 217° Southwest 104 120 6,100  Level New York TRACON
Fri 12:36:48 AM 41.2667 -72.2667 236° Southwest 104 120 6,100 -50 Level New York TRACON
Fri 12:37:48 AM 41.2500 -72.3000 236° Southwest 101 116 6,000  Descending New York TRACON
Fri 12:38:48 AM 41.2333 -72.3333 236° Southwest 105 121 6,100  Climbing New York TRACON
Fri 12:39:54 AM 41.2167 -72.3500 217° Southwest 106 122 6,000  Descending New York TRACON
Fri 12:40:54 AM 41.2000 -72.3833 236° Southwest 98 113 6,100 50 Climbing New York TRACON
Fri 12:41:54 AM 41.1667 -72.4167 217° Southwest 105 121 6,100 -50 Level New York TRACON
Fri 12:42:54 AM 41.1500 -72.4333 217° Southwest 98 113 6,000  Descending New York TRACON
Fri 12:43:54 AM 41.1333 -72.4667 236° Southwest 99 114 6,100 53 Climbing New York TRACON
Fri 12:44:48 AM 41.1167 -72.5000 236° Southwest 103 119 6,100  Level New York TRACON
Fri 12:45:48 AM 41.1000 -72.5167 217° Southwest 107 123 6,100  Level New York TRACON
Fri 12:46:42 AM 41.0833 -72.5500 236° Southwest 105 121 6,100 -53 Level New York TRACON
Fri 12:47:42 AM 41.0667 -72.5833 236° Southwest 105 121 6,000  Descending New York TRACON
Fri 12:48:48 AM 41.0500 -72.6000 217° Southwest 100 115 6,100 48 Climbing New York TRACON
Fri 12:49:48 AM 41.0333 -72.6333 236° Southwest 103 119 6,100 -50 Level New York TRACON
Fri 12:50:48 AM 41.0167 -72.6667 236° Southwest 104 120 6,000 -238 Descending New York TRACON
Fri 12:51:54 AM 41.0000 -72.7000 236° Southwest 107 123 5,600 -476 Descending New York TRACON
Fri 12:52:54 AM 40.9833 -72.7333 236° Southwest 94 108 5,000 -524 Descending New York TRACON
Fri 12:54:00 AM 40.9500 -72.7500 201° Southwest 99 114 4,500 -429 Descending New York TRACON
Fri 12:55:00 AM 40.9333 -72.7833 237° Southwest 96 110 4,100 -250 Descending New York TRACON
Fri 12:56:00 AM 40.9167 -72.8000 217° Southwest 101 116 4,000 -50 Descending New York TRACON
Fri 12:57:00 AM 40.9167 -72.8500 270° West 98 113 4,000 50 Level New York TRACON
Fri 12:58:00 AM 40.9000 -72.8833 237° Southwest 96 110 4,100 -100 Climbing New York TRACON
Fri 12:59:00 AM 40.9000 -72.9167 270° West 104 120 3,800 -381 Descending New York TRACON
Fri 01:00:06 AM 40.8833 -72.9500 237° Southwest 103 119 3,300 -381 Descending New York TRACON
Fri 01:01:06 AM 40.8833 -72.9833 270° West 94 108 3,000 -100 Descending New York TRACON
Fri 01:02:06 AM 40.8667 -73.0167 237° Southwest 90 104 3,100 50 Climbing New York TRACON
Fri 01:03:06 AM 40.8667 -73.0500 270° West 90 104 3,100 -50 Level New York TRACON
Fri 01:04:06 AM 40.8500 -73.0833 237° Southwest 92 106 3,000 -26 Descending New York TRACON
Fri 01:06:00 AM 40.8254 -73.1406 246° West  Level FlightAware Approximate
Fri 01:07:00 AM 40.8333 -73.1667 246° West 93 107 3,000  Level New York TRACON
Fri 01:08:00 AM 40.8143 -73.1916 249° West  Level FlightAware Approximate
Fri 01:10:48 AM 40.7833 -73.2833 229° Southwest 87 100 2,000  Level New York TRACON
Fri 01:11:48 AM 40.7833 -73.3167 270° West 100 115 2,000  Level New York TRACON
Fri 01:15:00 AM 40.7211 -73.3934 229° Southwest  Level FlightAware Approximate
Fri 01:16:00 AM 40.7167 -73.4000 229° Southwest  Level FlightAware Approximate

Login

Don't have an account? Register now (free) for customized features, flight alerts, and more!